Latest Weather Observations for Pirlangimpi

IDD60801

Issued at 2:31 pm CST Friday 18 August 2017 (issued every 30 minutes, with the page automatically refreshed every 10 minutes)

About weather observations | Map of weather stations | Latest weather observations for NT | Other Formats
Station Details ID: 014142 Name: PIRLANGIMPI AIRPORT Lat: -11.40 Lon: 130.42 Height: 18.3 m
Data from the previous 72 hours. | See also: Recent months at Pirlangimpi
Date/Time
CST
Temp
°C
App
Temp
°C
Dew
Point
°C
Rel
Hum
%
Delta-T
°C
Wind Press
QNH
hPa
Press
MSL
hPa
Rain since
9am
mm
Dir  Spd
km/h
Gust
km/h
Spd
kts
Gust
kts
18/02:30pm 33.3 33.1 17.5 39 10.1 NE 15 24 8 13 1010.5 1010.4 0.0
18/02:00pm 33.4 34.4 18.7 41 9.6 NE 11 22 6 12 1010.9 1010.8 0.0
18/01:30pm 33.8 34.1 18.7 40 9.9 ENE 15 30 8 16 1011.2 1011.1 0.0
18/01:00pm 33.0 33.3 19.5 45 8.9 ENE 17 28 9 15 1011.7 1011.6 0.0
18/12:30pm 32.3 32.7 18.1 42 9.2 E 13 24 7 13 1012.0 1011.9 0.0
18/12:00pm 31.9 32.5 19.5 47 8.1 E 15 26 8 14 1012.4 1012.3 0.0
18/11:30am 31.5 31.6 19.2 48 8.0 E 17 26 9 14 1013.1 1013.0 0.0
18/11:00am 30.8 31.1 18.8 48 7.8 E 15 28 8 15 1013.5 1013.4 0.0
18/10:30am 30.0 30.3 19.7 54 6.7 E 17 26 9 14 1013.8 1013.7 0.0
18/10:00am 29.5 30.4 20.1 57 6.2 E 15 28 8 15 1013.8 1013.7 0.0
18/09:30am 28.9 31.3 20.9 62 5.3 E 9 19 5 10 1013.8 1013.7 0.0
18/09:00am 27.0 29.5 21.1 70 3.9 E 9 17 5 9 1013.9 1013.8 0.0
18/08:30am 25.8 28.4 21.2 76 3.0 E 9 13 5 7 1013.7 1013.6 0.0
18/08:00am 24.9 27.8 21.0 79 2.6 E 7 9 4 5 1013.4 1013.3 0.0
18/07:30am 24.0 26.8 20.9 83 2.0 E 7 11 4 6 1013.1 1013.0 0.0
18/07:00am 23.8 26.7 21.1 85 1.8 E 7 11 4 6 1012.8 1012.7 0.0
18/06:30am 23.8 27.2 21.7 88 1.4 E 6 9 3 5 1012.3 1012.2 0.0
18/06:00am 23.2 26.5 21.5 90 1.1 E 6 7 3 4 1011.9 1011.8 0.0
18/05:30am 22.8 27.2 21.3 91 1.0 CALM 0 0 0 0 1011.5 1011.4 0.0
18/05:00am 22.9 27.4 21.5 92 0.9 CALM 0 4 0 2 1011.4 1011.3 0.0
18/04:30am 23.0 27.5 21.5 91 1.0 CALM 0 0 0 0 1011.1 1011.0 0.0
18/04:00am 23.2 27.7 21.6 91 1.1 CALM 0 0 0 0 1011.1 1011.0 0.0
18/03:30am 23.5 28.1 21.8 90 1.1 CALM 0 2 0 1 1011.1 1011.0 0.0
18/03:00am 23.1 27.6 21.5 91 1.1 CALM 0 0 0 0 1011.2 1011.1 0.0
18/02:30am 23.2 27.7 21.6 91 1.1 CALM 0 2 0 1 1011.2 1011.1 0.0
18/02:00am 23.2 27.7 21.5 90 1.1 CALM 0 0 0 0 1011.3 1011.2 0.0
18/01:30am 23.6 28.3 21.9 90 1.1 CALM 0 0 0 0 1011.5 1011.4 0.0
18/01:00am 23.7 28.4 22.0 90 1.1 CALM 0 0 0 0 1011.8 1011.7 0.0
18/12:30am 23.4 28.0 21.7 90 1.1 CALM 0 0 0 0 1011.9 1011.8 0.0
18/12:00am 23.5 28.1 21.8 90 1.1 CALM 0 0 0 0 1011.8 1011.7 0.0
 
Date/Time
CST
Temp
°C
App
Temp
°C
Dew
Point
°C
Rel
Hum
%
Delta-T
°C
Wind Press
QNH
hPa
Press
MSL
hPa
Rain since
9am
mm
Dir  Spd
km/h
Gust
km/h
Spd
kts
Gust
kts
17/11:30pm 24.0 28.9 22.3 90 1.1 CALM 0 0 0 0 1011.9 1011.8 0.0
17/11:00pm 24.2 29.1 22.3 89 1.3 CALM 0 0 0 0 1011.9 1011.8 0.0
17/10:30pm 24.4 29.3 22.3 88 1.4 CALM 0 0 0 0 1011.9 1011.8 0.0
17/10:00pm 24.6 29.5 22.3 87 1.5 CALM 0 0 0 0 1011.7 1011.6 0.0
17/09:30pm 24.8 29.3 22.3 86 1.7 NNE 2 4 1 2 1011.6 1011.5 0.0
17/09:00pm 24.9 28.9 22.0 84 1.9 N 4 6 2 3 1011.4 1011.3 0.0
17/08:30pm 25.1 29.4 22.0 83 2.1 N 2 4 1 2 1011.0 1010.9 0.0
17/08:00pm 25.6 29.9 21.9 80 2.5 N 2 4 1 2 1010.7 1010.6 0.0
17/07:30pm 26.3 30.6 21.9 77 2.9 NNE 2 6 1 3 1010.5 1010.4 0.0
17/07:00pm 26.9 30.3 21.6 72 3.5 NNE 6 9 3 5 1010.2 1010.1 0.0
17/06:30pm 27.6 30.9 21.4 69 4.1 NE 6 11 3 6 1010.0 1009.9 0.0
17/06:00pm 28.4 31.9 21.9 68 4.4 N 6 9 3 5 1009.6 1009.5 0.0
17/05:30pm 28.7 32.1 21.7 66 4.7 NNE 6 13 3 7 1009.6 1009.5 0.0
17/05:00pm 29.8 32.8 21.2 60 5.8 NNE 7 17 4 9 1009.2 1009.1 0.0
17/04:30pm 31.2 34.1 21.7 57 6.4 NE 9 17 5 9 1009.1 1009.0 0.0
17/04:00pm 31.4 34.1 21.3 55 6.8 NE 9 15 5 8 1009.1 1009.0 0.0
17/03:30pm 31.9 34.3 20.8 51 7.4 NE 9 19 5 10 1009.2 1009.1 0.0
17/03:00pm 32.0 35.1 21.5 53 7.1 NNE 7 13 4 7 1009.5 1009.4 0.0
17/02:30pm 32.0 35.0 20.9 52 7.4 WNW 6 11 3 6 1009.7 1009.6 0.0
17/02:00pm 30.7 33.3 21.2 57 6.4 NW 9 13 5 7 1010.2 1010.1 0.0
17/01:30pm 30.7 33.5 20.9 56 6.5 NW 7 13 4 7 1010.6 1010.5 0.0
17/01:00pm 29.2 32.6 20.9 61 5.5 NW 4 7 2 4 1011.3 1011.2 0.0
17/12:30pm 29.1 32.1 20.8 61 5.5 W 6 7 3 4 1011.7 1011.6 0.0
17/12:00pm 29.3 32.8 21.8 64 5.1 SW 6 11 3 6 1012.1 1012.0 0.0
17/11:30am 28.3 31.1 21.6 67 4.5 SSW 9 13 5 7 1012.6 1012.5 0.0
17/11:00am 28.5 31.9 22.0 68 4.4 SSW 7 13 4 7 1012.9 1012.8 0.0
17/10:30am 27.9 31.5 22.4 72 3.7 SSW 7 11 4 6 1013.1 1013.0 0.0
17/10:00am 27.5 31.0 22.2 73 3.6 S 7 13 4 7 1013.1 1013.0 0.0
17/09:30am 27.4 30.9 22.1 73 3.6 SE 7 9 4 5 1013.0 1012.9 0.0
17/09:00am 26.0 30.5 22.9 83 2.1 SSE 4 6 2 3 1012.8 1012.7 0.0
17/08:30am 25.0 29.5 22.9 88 1.4 SSE 4 4 2 2 1012.5 1012.4 0.0
17/08:00am 23.9 29.0 22.7 93 0.8 CALM 0 0 0 0 1012.2 1012.1 0.0
17/07:30am 22.6 27.1 21.6 94 0.7 CALM 0 0 0 0 1011.9 1011.8 0.0
17/07:00am 22.1 26.4 21.1 94 0.7 CALM 0 0 0 0 1011.6 1011.5 0.0
17/06:30am 21.9 26.1 20.9 94 0.7 CALM 0 0 0 0 1011.3 1011.2 0.0
17/06:00am 21.7 25.7 20.5 93 0.8 CALM 0 0 0 0 1010.9 1010.8 0.0
17/05:30am 21.6 25.6 20.6 94 0.6 CALM 0 0 0 0 1010.6 1010.5 0.0
17/05:00am 21.6 25.5 20.4 93 0.8 CALM 0 0 0 0 1010.3 1010.2 0.0
17/04:30am 21.6 25.6 20.6 94 0.6 CALM 0 0 0 0 1010.2 1010.1 0.0
17/04:00am 21.5 25.4 20.3 93 0.8 CALM 0 0 0 0 1010.2 1010.1 0.0
17/03:30am 21.5 25.4 20.3 93 0.8 CALM 0 0 0 0 1010.2 1010.1 0.0
17/03:00am 21.8 25.9 20.8 94 0.7 CALM 0 0 0 0 1010.3 1010.2 0.0
17/02:30am 21.6 25.5 20.4 93 0.8 CALM 0 0 0 0 1010.4 1010.3 0.0
17/02:00am 21.8 25.8 20.6 93 0.8 CALM 0 0 0 0 1010.6 1010.5 0.0
17/01:30am 22.0 26.0 20.6 92 0.9 CALM 0 0 0 0 1010.8 1010.7 0.0
17/01:00am 22.3 26.6 21.1 93 0.8 CALM 0 0 0 0 1011.1 1011.0 0.0
17/12:30am 22.4 26.6 21.0 92 0.9 CALM 0 0 0 0 1011.3 1011.2 0.0
17/12:00am 22.6 27.0 21.4 93 0.8 CALM 0 0 0 0 1011.4 1011.3 0.0
 
Date/Time
CST
Temp
°C
App
Temp
°C
Dew
Point
°C
Rel
Hum
%
Delta-T
°C
Wind Press
QNH
hPa
Press
MSL
hPa
Rain since
9am
mm
Dir  Spd
km/h
Gust
km/h
Spd
kts
Gust
kts
16/11:30pm 22.6 26.9 21.2 92 0.9 CALM 0 0 0 0 1011.6 1011.5 0.0
16/11:00pm 22.8 27.2 21.4 92 0.9 CALM 0 0 0 0 1011.8 1011.7 0.0
16/10:30pm 22.9 27.0 21.5 92 0.9 NE 2 2 1 1 1011.9 1011.8 0.0
16/10:00pm 23.1 27.2 21.5 91 1.1 NE 2 4 1 2 1011.8 1011.7 0.0
16/09:30pm 23.3 27.8 21.6 90 1.1 CALM 0 0 0 0 1011.6 1011.5 0.0
16/09:00pm 23.5 28.0 21.6 89 1.3 CALM 0 4 0 2 1011.4 1011.3 0.0
16/08:30pm 23.9 28.4 21.6 87 1.5 CALM 0 0 0 0 1011.1 1011.0 0.0
16/08:00pm 24.4 29.0 21.7 85 1.8 CALM 0 0 0 0 1010.8 1010.7 0.0
16/07:30pm 25.1 29.7 21.8 82 2.2 CALM 0 0 0 0 1010.5 1010.4 0.0
16/07:00pm 25.5 30.1 21.8 80 2.5 CALM 0 2 0 1 1010.4 1010.3 0.0
16/06:30pm 26.1 29.5 21.7 77 2.9 WSW 6 9 3 5 1010.1 1010.0 0.0
16/06:00pm 27.2 30.5 21.5 71 3.8 WNW 6 9 3 5 1009.9 1009.8 0.0
16/05:30pm 27.7 31.0 21.5 69 4.1 NNW 6 9 3 5 1009.7 1009.6 0.0
16/05:00pm 28.1 31.0 21.1 65 4.7 NNW 7 13 4 7 1009.5 1009.4 0.0
16/04:30pm 28.8 31.1 21.3 64 5.0 NW 11 19 6 10 1009.2 1009.1 0.0
16/04:00pm 28.6 31.1 21.1 64 5.0 NW 9 15 5 8 1009.2 1009.1 0.0
16/03:30pm 29.3 31.6 21.3 62 5.4 NW 11 19 6 10 1009.4 1009.3 0.0
16/03:00pm 29.4 32.1 21.4 62 5.4 NNW 9 15 5 8 1009.6 1009.5 0.0
16/02:30pm 29.8 32.0 21.2 60 5.8 NNW 11 24 6 13 1009.9 1009.8 0.0
16/02:00pm 30.6 33.1 19.9 52 7.0 WNW 6 13 3 7 1010.0 1009.9 0.0
16/01:30pm 30.5 33.6 21.0 57 6.4 WNW 6 13 3 7 1010.5 1010.4 0.0
16/01:00pm 30.3 32.9 20.0 54 6.8 W 6 11 3 6 1010.9 1010.8 0.0
16/12:30pm 30.9 33.5 20.5 54 6.9 NW 7 13 4 7 1011.3 1011.2 0.0
16/12:00pm 32.2 34.4 20.5 50 7.8 ENE 9 17 5 9 1011.9 1011.8 0.0
16/11:30am 29.3 32.6 20.7 59 5.7 S 4 9 2 5 1012.5 1012.4 0.0
16/11:00am 27.1 30.5 21.6 72 3.7 SW 6 9 3 5 1012.8 1012.7 0.0
16/10:30am 26.5 29.8 21.9 76 3.1 SSW 7 11 4 6 1013.2 1013.1 0.0
16/10:00am 26.2 29.1 21.8 77 2.9 SSW 9 13 5 7 1013.2 1013.1 0.0
16/09:30am 26.6 30.2 22.0 76 3.1 SSW 6 9 3 5 1013.3 1013.2 0.0
16/09:00am 25.5 29.5 22.0 81 2.3 S 4 7 2 4 1013.1 1013.0 0.0
16/08:30am 24.2 28.9 21.9 87 1.5 CALM 0 2 0 1 1012.8 1012.7 0.0
16/08:00am 22.6 27.0 21.4 93 0.8 CALM 0 0 0 0 1012.6 1012.5 0.0
16/07:30am 20.8 24.3 19.6 93 0.8 CALM 0 0 0 0 1012.3 1012.2 0.0
16/07:00am 20.3 23.6 19.0 92 0.8 CALM 0 0 0 0 1011.8 1011.7 0.0
16/06:30am 20.7 24.2 19.5 93 0.8 CALM 0 0 0 0 1011.4 1011.3 0.0
16/06:00am 20.8 24.4 19.8 94 0.6 CALM 0 0 0 0 1011.1 1011.0 0.0
16/05:30am 20.6 24.0 19.3 92 0.8 CALM 0 0 0 0 1010.8 1010.7 0.0
16/05:00am 20.4 23.7 19.1 92 0.8 CALM 0 2 0 1 1010.8 1010.7 0.0
16/04:30am 20.4 23.3 19.1 92 0.8 NE 2 2 1 1 1010.7 1010.6 0.0
16/04:00am 20.4 23.3 19.1 92 0.8 NE 2 2 1 1 1010.5 1010.4 0.0
16/03:30am 20.5 23.5 19.2 92 0.8 NE 2 2 1 1 1010.6 1010.5 0.0
16/03:00am 20.8 24.3 19.5 92 0.8 CALM 0 0 0 0 1010.8 1010.7 0.0
16/02:30am 21.0 24.6 19.7 92 0.8 CALM 0 2 0 1 1011.0 1010.9 0.0
16/02:00am 21.1 24.3 19.7 92 0.9 NE 2 4 1 2 1011.3 1011.2 0.0
16/01:30am 21.2 24.4 19.8 92 0.9 NE 2 4 1 2 1011.6 1011.5 0.0
16/01:00am 21.3 24.6 19.9 92 0.9 NE 2 4 1 2 1011.7 1011.6 0.0
16/12:30am 21.3 24.2 19.8 91 1.0 NE 4 6 2 3 1012.0 1011.9 0.0
16/12:00am 21.5 24.9 19.4 88 1.3 CALM 0 6 0 3 1012.3 1012.2 0.0
 
Date/Time
CST
Temp
°C
App
Temp
°C
Dew
Point
°C
Rel
Hum
%
Delta-T
°C
Wind Press
QNH
hPa
Press
MSL
hPa
Rain since
9am
mm
Dir  Spd
km/h
Gust
km/h
Spd
kts
Gust
kts
15/11:30pm 22.2 26.0 20.1 88 1.4 CALM 0 0 0 0 1012.3 1012.2 0.0
15/11:00pm 22.6 26.5 20.3 87 1.5 CALM 0 0 0 0 1012.2 1012.1 0.0
15/10:30pm 22.9 26.8 20.4 86 1.6 CALM 0 2 0 1 1012.3 1012.2 0.0
15/10:00pm 23.2 27.1 20.3 84 1.9 CALM 0 0 0 0 1012.2 1012.1 0.0
15/09:30pm 23.7 27.6 20.4 82 2.1 CALM 0 0 0 0 1012.1 1012.0 0.0
15/09:00pm 24.2 28.2 20.5 80 2.4 CALM 0 2 0 1 1012.0 1011.9 0.0
15/08:30pm 24.9 28.9 20.6 77 2.8 CALM 0 0 0 0 1011.7 1011.6 0.0
15/08:00pm 25.5 29.2 20.7 75 3.1 W 2 6 1 3 1011.3 1011.2 0.0
15/07:30pm 25.9 29.6 20.7 73 3.4 W 2 6 1 3 1011.2 1011.1 0.0
15/07:00pm 26.5 29.7 20.6 70 3.9 W 4 6 2 3 1011.1 1011.0 0.0
15/06:30pm 27.1 30.4 20.7 68 4.2 W 4 9 2 5 1010.8 1010.7 0.0
15/06:00pm 27.9 30.8 20.7 65 4.8 WNW 6 13 3 7 1010.5 1010.4 0.0
15/05:30pm 29.0 31.7 20.7 61 5.5 WNW 7 13 4 7 1010.3 1010.2 0.0
15/05:00pm 30.1 33.1 20.9 57 6.1 W 6 13 3 7 1010.1 1010.0 0.0
15/04:30pm 29.7 32.5 20.8 58 5.9 W 7 15 4 8 1010.1 1010.0 0.0
15/04:00pm 31.8 34.8 21.3 53 7.1 WNW 7 11 4 6 1010.1 1010.0 0.0
15/03:30pm 32.4 34.4 20.0 48 8.2 WSW 9 17 5 9 1010.2 1010.1 0.0
15/03:00pm 31.0 32.2 17.3 43 8.7 S 7 11 4 6 1010.5 1010.4 0.0

Other Formats:

Comma delimited format used in spreadsheet applications
http://www.bom.gov.au/fwo/IDD60801/IDD60801.94119.axf

JavaScript Object Notation format (JSON) in row-major order
http://www.bom.gov.au/fwo/IDD60801/IDD60801.94119.json